Time;durP1;ratioP1;P1;durP2;ratioP2;P2;SDS_P1;SDS_P2;PMS_P1;PMS_P2;Temp;Humidity;BMP_temperature;BMP_pressure;BME280_temperature;BME280_humidity;BME280_pressure;Samples;Min_cycle;Max_cycle;Signal;HPM_P1;HPM_P2
2024/02/04 00:02:26;;;;;;;0.30;0.20;;;7.60;99.90;;;;;;4940175;29;20466;-81
2024/02/04 00:04:53;;;;;;;0.30;0.30;;;7.60;99.90;;;;;;4941793;29;20850;-80
2024/02/04 00:07:21;;;;;;;0.33;0.33;;;8.70;99.90;;;;;;4941219;29;20451;-80
2024/02/04 00:09:48;;;;;;;0.30;0.30;;;7.60;99.90;;;;;;4939808;29;20456;-81
2024/02/04 00:12:15;;;;;;;0.40;0.33;;;;;;;;;;4939501;29;20459;-80
2024/02/04 00:14:42;;;;;;;0.30;0.20;;;;;;;;;;4939645;29;20491;-80
2024/02/04 00:17:09;;;;;;;0.30;0.30;;;7.60;99.90;;;;;;4939146;29;20471;-80
2024/02/04 00:19:36;;;;;;;0.33;0.30;;;7.60;99.90;;;;;;4938448;29;20442;-80
2024/02/04 00:22:03;;;;;;;0.30;0.30;;;7.70;99.90;;;;;;4938523;29;20482;-81
2024/02/04 00:24:31;;;;;;;0.30;0.20;;;8.80;99.90;;;;;;4938807;29;20455;-81
2024/02/04 00:26:58;;;;;;;0.30;0.23;;;9.20;99.90;;;;;;4938449;29;20444;-81
2024/02/04 00:29:24;;;;;;;0.30;0.30;;;7.70;99.90;;;;;;4938756;29;20443;-81
2024/02/04 00:31:51;;;;;;;0.30;0.30;;;7.70;99.90;;;;;;4938535;29;20478;-81
2024/02/04 00:34:18;;;;;;;0.30;0.30;;;7.60;99.90;;;;;;4938639;29;20474;-81
2024/02/04 00:36:45;;;;;;;0.93;0.63;;;7.50;99.90;;;;;;4938883;29;20493;-81
2024/02/04 00:39:11;;;;;;;0.60;0.30;;;7.40;99.90;;;;;;4938617;29;20550;-83
2024/02/04 00:41:40;;;;;;;0.30;0.20;;;7.30;99.90;;;;;;4938793;29;20471;-81
2024/02/04 02:13:18;;;;;;;0.37;0.33;;;6.90;99.90;;;;;;4955008;29;21006;-81
2024/02/04 02:15:49;;;;;;;0.30;0.20;;;6.90;99.90;;;;;;4955729;29;20462;-81
2024/02/04 02:18:22;;;;;;;0.30;0.30;;;6.90;99.90;;;;;;4955844;29;20458;-81
2024/02/04 02:21:04;;;;;;;0.30;0.27;;;6.90;99.90;;;;;;4955336;28;20458;-81
2024/02/04 02:23:35;;;;;;;0.87;0.47;;;6.80;99.90;;;;;;4955876;29;20431;-81
2024/02/04 02:26:05;;;;;;;0.70;0.40;;;6.90;99.90;;;;;;4955788;29;20431;-81
2024/02/04 02:28:32;;;;;;;0.30;0.20;;;6.90;99.90;;;;;;4955922;29;20441;-81
2024/02/04 02:30:59;;;;;;;0.30;0.30;;;7.00;99.90;;;;;;4955568;28;20474;-81
2024/02/04 02:33:25;;;;;;;0.40;0.40;;;7.00;99.90;;;;;;4958360;28;20438;-81
2024/02/04 02:35:56;;;;;;;0.70;0.37;;;5.80;99.90;;;;;;4958909;28;20995;-81
2024/02/04 02:38:27;;;;;;;0.40;0.30;;;6.90;99.90;;;;;;4959504;29;20437;-81
2024/02/04 02:40:59;;;;;;;0.50;0.30;;;7.00;99.90;;;;;;4959700;28;20457;-81
2024/02/04 02:43:28;;;;;;;0.97;0.30;;;7.00;99.90;;;;;;4959190;29;20427;-81
2024/02/04 02:45:55;;;;;;;0.40;0.40;;;;;;;;;;4958975;28;20453;-81
2024/02/04 02:48:21;;;;;;;0.30;0.20;;;;;;;;;;4958976;28;20450;-81
2024/02/04 02:50:49;;;;;;;0.97;0.30;;;;;;;;;;4958920;28;20529;-81
2024/02/04 02:53:15;;;;;;;0.40;0.40;;;7.00;99.90;;;;;;4958630;28;20438;-81
2024/02/04 02:55:42;;;;;;;0.50;0.50;;;7.00;99.90;;;;;;4958866;28;20482;-81
2024/02/04 02:58:09;;;;;;;0.37;0.33;;;7.00;99.90;;;;;;4959005;28;20465;-81
2024/02/04 03:00:37;;;;;;;0.90;0.30;;;6.80;99.90;;;;;;4958679;28;20936;-81
2024/02/04 03:03:05;;;;;;;0.30;0.30;;;7.40;99.90;;;;;;4958954;28;20793;-81
2024/02/04 03:05:31;;;;;;;0.30;0.20;;;7.00;99.90;;;;;;4959111;29;20442;-81
2024/02/04 03:07:59;;;;;;;0.30;0.20;;;8.40;99.90;;;;;;4958663;28;20454;-81
2024/02/04 03:10:25;;;;;;;0.40;0.30;;;7.00;99.90;;;;;;4958928;28;20450;-81
2024/02/04 03:12:52;;;;;;;0.30;0.20;;;7.90;99.90;;;;;;4958567;28;21022;-81
2024/02/04 03:15:19;;;;;;;0.40;0.30;;;6.90;99.90;;;;;;4958485;28;20565;-81
2024/02/04 03:17:47;;;;;;;0.40;0.30;;;6.90;99.90;;;;;;4958083;28;20453;-81
2024/02/04 03:20:14;;;;;;;0.30;0.30;;;;;;;;;;4958653;28;20446;-81
2024/02/04 03:22:42;;;;;;;0.33;0.30;;;;;;;;;;4958315;28;20995;-81
2024/02/04 03:25:09;;;;;;;0.30;0.30;;;6.90;99.90;;;;;;4958681;28;20513;-81
2024/02/04 03:27:37;;;;;;;0.37;0.27;;;;;;;;;;4958260;28;20449;-81
2024/02/04 03:30:04;;;;;;;0.60;0.40;;;6.90;99.90;;;;;;4962651;29;20456;-81
2024/02/04 03:32:33;;;;;;;0.40;0.30;;;6.90;99.90;;;;;;4958302;28;20846;-81
2024/02/04 03:35:02;;;;;;;0.60;0.40;;;6.90;99.90;;;;;;4958799;29;20442;-81
2024/02/04 03:37:28;;;;;;;0.30;0.30;;;6.90;99.90;;;;;;4958415;29;20482;-80
2024/02/04 03:39:56;;;;;;;0.50;0.40;;;7.00;99.90;;;;;;4958276;28;20478;-80
2024/02/04 03:42:22;;;;;;;0.40;0.30;;;6.90;99.90;;;;;;4958704;28;20866;-81
2024/02/04 03:44:49;;;;;;;0.30;0.30;;;7.00;99.90;;;;;;4957117;28;20947;-81
2024/02/04 03:47:16;;;;;;;0.30;0.30;;;7.00;99.90;;;;;;4958077;28;20453;-81
2024/02/04 03:49:43;;;;;;;0.50;0.40;;;7.00;99.90;;;;;;4957874;28;20943;-81
2024/02/04 03:52:11;;;;;;;0.30;0.30;;;8.40;99.90;;;;;;4957822;28;20461;-81
2024/02/04 03:54:37;;;;;;;0.40;0.30;;;6.90;99.90;;;;;;4958051;28;20512;-81
2024/02/04 03:57:05;;;;;;;0.33;0.33;;;6.90;99.90;;;;;;4957631;28;20485;-81
2024/02/04 03:59:32;;;;;;;0.33;0.30;;;;;;;;;;4957651;28;20446;-81
2024/02/04 04:01:58;;;;;;;0.30;0.30;;;7.00;99.90;;;;;;4958261;28;20482;-81
2024/02/04 04:04:26;;;;;;;0.30;0.20;;;7.00;99.90;;;;;;4958221;29;20453;-81
2024/02/04 04:06:52;;;;;;;0.37;0.30;;;7.00;99.90;;;;;;4958108;28;20451;-81
2024/02/04 04:09:20;;;;;;;0.67;0.30;;;7.00;99.90;;;;;;4957683;29;20454;-81
2024/02/04 04:11:47;;;;;;;0.30;0.20;;;;;;;;;;4957013;28;20482;-81
2024/02/04 04:14:14;;;;;;;0.40;0.30;;;7.00;99.90;;;;;;4957762;29;20524;-81
2024/02/04 04:16:41;;;;;;;0.30;0.30;;;7.10;99.90;;;;;;4957217;28;20490;-81
2024/02/04 04:19:08;;;;;;;0.30;0.30;;;;;;;;;;4957144;28;20446;-80
2024/02/04 04:21:35;;;;;;;0.30;0.20;;;;;;;;;;4957247;28;20474;-81
2024/02/04 04:24:02;;;;;;;0.40;0.40;;;;;;;;;;4958144;28;20465;-81
2024/02/04 04:26:40;;;;;;;0.30;0.20;;;7.00;99.90;;;;;;4957758;28;20446;-81
2024/02/04 04:29:07;;;;;;;0.30;0.30;;;;;;;;;;4957183;29;20438;-81
2024/02/04 04:31:34;;;;;;;0.53;0.30;;;;;;;;;;4957040;28;20467;-81
2024/02/04 04:34:01;;;;;;;0.30;0.30;;;;;;;;;;4957261;28;20464;-80
2024/02/04 04:36:28;;;;;;;0.30;0.30;;;;;;;;;;4957009;29;20485;-80
2024/02/04 04:38:55;;;;;;;0.30;0.23;;;;;;;;;;4956984;28;20451;-80
2024/02/04 04:41:22;;;;;;;0.30;0.20;;;;;;;;;;4957073;28;20458;-81
2024/02/04 04:43:50;;;;;;;0.40;0.30;;;6.90;99.90;;;;;;4957234;28;20458;-81
2024/02/04 04:46:17;;;;;;;0.30;0.30;;;;;;;;;;4957071;28;20451;-81
2024/02/04 04:48:44;;;;;;;0.30;0.20;;;6.80;99.90;;;;;;4957075;28;20454;-81
2024/02/04 04:51:12;;;;;;;0.30;0.30;;;6.80;99.90;;;;;;4957014;28;20463;-81
2024/02/04 04:53:39;;;;;;;0.30;0.30;;;6.80;99.90;;;;;;4956869;28;20933;-81
2024/02/04 04:56:06;;;;;;;0.50;0.30;;;6.80;99.90;;;;;;4956000;28;21003;-81
2024/02/04 04:58:33;;;;;;;0.30;0.30;;;;;;;;;;4956306;28;20461;-81
2024/02/04 05:03:30;;;;;;;0.30;0.30;;;6.90;99.90;;;;;;4974341;28;20878;-80
2024/02/04 05:05:56;;;;;;;0.30;0.30;;;6.80;99.90;;;;;;4975560;28;20437;-80
2024/02/04 05:08:23;;;;;;;0.40;0.30;;;6.80;99.90;;;;;;4975610;28;20500;-81
2024/02/04 05:10:50;;;;;;;0.40;0.30;;;6.80;99.90;;;;;;4975292;28;20970;-81
2024/02/04 05:13:17;;;;;;;0.30;0.30;;;6.80;99.90;;;;;;4975870;28;20438;-81
2024/02/04 05:15:44;;;;;;;0.40;0.30;;;6.70;99.90;;;;;;4975401;28;20437;-80
2024/02/04 05:18:10;;;;;;;0.30;0.30;;;6.60;99.90;;;;;;4975541;28;20460;-81
2024/02/04 05:20:39;;;;;;;0.40;0.30;;;6.60;99.90;;;;;;4975497;28;20461;-81
2024/02/04 05:23:05;;;;;;;0.40;0.40;;;6.60;99.90;;;;;;4975732;28;20811;-81
2024/02/04 05:25:32;;;;;;;0.60;0.40;;;;;;;;;;4982569;28;20461;-81
2024/02/04 05:27:59;;;;;;;0.30;0.20;;;;;;;;;;4980262;28;20508;-80
2024/02/04 05:32:54;;;;;;;0.30;0.30;;;6.70;99.90;;;;;;4974510;28;20535;-80
2024/02/04 05:35:21;;;;;;;0.30;0.30;;;6.80;99.90;;;;;;4975584;28;20448;-81
2024/02/04 05:37:49;;;;;;;0.30;0.30;;;6.80;99.90;;;;;;4975434;28;20493;-81
2024/02/04 05:40:18;;;;;;;0.30;0.20;;;6.80;99.90;;;;;;4975206;28;20453;-80
2024/02/04 05:42:45;;;;;;;0.30;0.30;;;6.90;99.90;;;;;;4956303;28;20549;-81
2024/02/04 05:45:12;;;;;;;0.30;0.30;;;7.50;99.90;;;;;;4956106;28;20482;-80
2024/02/04 05:47:39;;;;;;;0.30;0.20;;;;;;;;;;4955933;28;21072;-80
2024/02/04 05:50:07;;;;;;;0.30;0.20;;;6.80;99.90;;;;;;4956130;29;20793;-80
2024/02/04 05:52:34;;;;;;;0.30;0.20;;;6.80;99.90;;;;;;4956015;28;20465;-80
2024/02/04 05:55:02;;;;;;;0.30;0.20;;;6.80;99.90;;;;;;4956147;28;20450;-80
2024/02/04 05:57:27;;;;;;;0.60;0.30;;;6.70;99.90;;;;;;4955581;28;21033;-81
2024/02/04 05:59:55;;;;;;;0.40;0.40;;;6.80;99.90;;;;;;4956179;28;20446;-81
2024/02/04 06:02:22;;;;;;;0.30;0.30;;;6.80;99.90;;;;;;4955951;28;20229;-81
2024/02/04 06:04:49;;;;;;;0.30;0.20;;;;;;;;;;4955792;28;20885;-81
2024/02/04 06:07:16;;;;;;;0.40;0.30;;;;;;;;;;4956877;28;20489;-81
2024/02/04 06:09:43;;;;;;;0.30;0.30;;;;;;;;;;4959714;28;20794;-80
2024/02/04 06:12:11;;;;;;;0.40;0.30;;;6.90;99.90;;;;;;5531882;23;20493;-80
2024/02/04 06:14:39;;;;;;;0.30;0.30;;;6.90;99.90;;;;;;4979651;28;20441;-80
2024/02/04 06:17:08;;;;;;;0.30;0.20;;;6.90;99.90;;;;;;4978757;28;21104;-80
2024/02/04 06:19:35;;;;;;;0.30;0.30;;;6.80;99.90;;;;;;4978959;28;20445;-80
2024/02/04 06:22:01;;;;;;;0.40;0.30;;;6.70;99.90;;;;;;4978681;28;20477;-81
2024/02/04 06:24:28;;;;;;;0.30;0.30;;;6.70;99.90;;;;;;4983000;28;20452;-80
2024/02/04 06:26:55;;;;;;;0.30;0.30;;;;;;;;;;4980319;28;20532;-80
2024/02/04 06:29:23;;;;;;;0.40;0.40;;;6.70;99.90;;;;;;4978862;28;20464;-80
2024/02/04 06:31:50;;;;;;;0.30;0.20;;;6.80;99.90;;;;;;4978588;28;20469;-80
2024/02/04 06:34:17;;;;;;;0.40;0.40;;;6.80;99.90;;;;;;4978578;28;20452;-80
2024/02/04 06:36:44;;;;;;;0.40;0.30;;;6.80;99.90;;;;;;4978085;28;21029;-80
2024/02/04 06:39:11;;;;;;;0.30;0.30;;;;;;;;;;4978604;28;20990;-80
2024/02/04 06:41:38;;;;;;;0.30;0.30;;;6.80;99.90;;;;;;4978269;28;20476;-80
2024/02/04 06:44:05;;;;;;;0.30;0.20;;;6.80;99.90;;;;;;4978326;28;20786;-80
2024/02/04 06:46:33;;;;;;;0.30;0.30;;;6.80;99.90;;;;;;4978512;28;20456;-81
2024/02/04 06:49:01;;;;;;;0.30;0.30;;;;;;;;;;4978596;28;20820;-81
2024/02/04 06:51:27;;;;;;;0.30;0.30;;;6.80;99.90;;;;;;4978082;28;20549;-81
2024/02/04 06:53:54;;;;;;;0.30;0.30;;;6.80;99.90;;;;;;4978595;28;20475;-81
2024/02/04 06:56:21;;;;;;;0.30;0.20;;;;;;;;;;4978570;28;20461;-81
2024/02/04 06:58:48;;;;;;;0.30;0.20;;;6.80;99.90;;;;;;4978728;28;20445;-81
2024/02/04 07:01:15;;;;;;;0.40;0.40;;;6.90;99.90;;;;;;4978303;28;20476;-81
2024/02/04 07:03:43;;;;;;;0.40;0.30;;;6.90;99.90;;;;;;4978104;28;20438;-81
2024/02/04 07:06:11;;;;;;;0.30;0.30;;;;;;;;;;4977813;28;20445;-81
2024/02/04 07:08:38;;;;;;;0.30;0.30;;;;;;;;;;4978126;28;20456;-81
2024/02/04 07:11:05;;;;;;;0.30;0.30;;;6.90;99.90;;;;;;4977763;28;20473;-81
2024/02/04 07:13:31;;;;;;;0.40;0.30;;;6.80;99.90;;;;;;4977672;28;20477;-81
2024/02/04 07:15:59;;;;;;;0.30;0.30;;;;;;;;;;4977919;28;20446;-81
2024/02/04 07:18:26;;;;;;;0.40;0.30;;;6.90;99.90;;;;;;4977578;28;20485;-81
2024/02/04 07:20:54;;;;;;;0.93;0.53;;;8.00;99.90;;;;;;4981484;28;20516;-81
2024/02/04 07:23:21;;;;;;;0.30;0.30;;;;;;;;;;4981519;28;20819;-80
2024/02/04 07:25:48;;;;;;;0.30;0.30;;;;;;;;;;4978181;28;20453;-81
2024/02/04 07:28:15;;;;;;;0.47;0.40;;;;;;;;;;4978299;28;20441;-81
2024/02/04 07:30:42;;;;;;;0.30;0.20;;;6.70;99.90;;;;;;4978583;28;20454;-81
2024/02/04 07:33:09;;;;;;;0.40;0.30;;;6.70;99.90;;;;;;4978437;28;20448;-81
2024/02/04 07:35:36;;;;;;;0.40;0.30;;;6.80;99.90;;;;;;4985968;28;20453;-80
2024/02/04 07:38:04;;;;;;;0.30;0.20;;;6.70;99.90;;;;;;5000523;28;20559;-80
2024/02/04 07:40:32;;;;;;;0.30;0.20;;;6.80;99.90;;;;;;4983106;28;20452;-81
2024/02/04 07:42:59;;;;;;;0.30;0.30;;;6.80;99.90;;;;;;4980574;28;20442;-81
2024/02/04 07:45:26;;;;;;;0.40;0.30;;;;;;;;;;4979133;28;20453;-81
2024/02/04 07:47:52;;;;;;;1.10;0.37;;;7.00;99.90;;;;;;4978173;28;20446;-81
2024/02/04 07:50:19;;;;;;;0.40;0.30;;;7.10;99.90;;;;;;4986401;28;20456;-81
2024/02/04 07:52:46;;;;;;;0.30;0.30;;;7.30;99.90;;;;;;4991531;28;20456;-81
2024/02/04 07:55:15;;;;;;;0.30;0.30;;;7.40;99.90;;;;;;4985288;28;20468;-81
2024/02/04 07:57:41;;;;;;;1.03;0.37;;;7.40;99.90;;;;;;4983601;28;20491;-81
2024/02/04 08:00:10;;;;;;;0.30;0.30;;;7.70;99.90;;;;;;4982822;28;20449;-81
2024/02/04 08:02:37;;;;;;;0.30;0.30;;;7.50;99.90;;;;;;4981570;28;21050;-80
2024/02/04 08:05:04;;;;;;;0.50;0.40;;;7.50;99.90;;;;;;4982387;28;20454;-80
2024/02/04 08:07:30;;;;;;;0.30;0.30;;;7.60;99.90;;;;;;4982232;28;20456;-82
2024/02/04 08:09:57;;;;;;;0.30;0.30;;;7.70;99.90;;;;;;4984654;28;20434;-81
2024/02/04 08:12:25;;;;;;;0.70;0.30;;;7.70;99.90;;;;;;4984542;28;20568;-81
2024/02/04 08:14:52;;;;;;;0.37;0.30;;;7.80;99.90;;;;;;4986821;28;20466;-81
2024/02/04 08:17:18;;;;;;;0.30;0.20;;;7.80;99.90;;;;;;4986837;28;20484;-81
2024/02/04 08:19:45;;;;;;;0.30;0.20;;;7.90;99.90;;;;;;4988440;28;20437;-81
2024/02/04 08:22:12;;;;;;;0.40;0.30;;;9.50;99.90;;;;;;4988036;28;20473;-81
2024/02/04 08:24:38;;;;;;;0.40;0.30;;;8.10;99.90;;;;;;4988378;28;20501;-81
2024/02/04 08:27:05;;;;;;;0.40;0.40;;;8.00;99.90;;;;;;4988286;28;20798;-81
2024/02/04 08:29:33;;;;;;;0.40;0.30;;;8.10;99.90;;;;;;4986637;28;20445;-80
2024/02/04 08:32:00;;;;;;;0.30;0.30;;;8.10;99.90;;;;;;4989199;28;20465;-81
2024/02/04 08:34:27;;;;;;;0.30;0.27;;;8.20;99.90;;;;;;4989469;28;20464;-81
2024/02/04 08:36:54;;;;;;;0.30;0.30;;;8.20;99.90;;;;;;4989474;28;20449;-81
2024/02/04 08:39:20;;;;;;;0.40;0.30;;;8.30;99.90;;;;;;4989288;28;20815;-81
2024/02/04 08:41:47;;;;;;;0.30;0.30;;;8.40;99.90;;;;;;4991832;28;20476;-81
2024/02/04 08:44:14;;;;;;;0.30;0.30;;;8.40;99.90;;;;;;4992272;28;20448;-81
2024/02/04 08:46:42;;;;;;;0.30;0.20;;;8.50;99.90;;;;;;4992146;28;20437;-81
2024/02/04 08:49:09;;;;;;;0.30;0.30;;;8.60;99.90;;;;;;4991529;28;20967;-81
2024/02/04 08:51:35;;;;;;;0.30;0.30;;;8.60;99.90;;;;;;4991161;28;20461;-81
2024/02/04 08:54:02;;;;;;;0.50;0.40;;;8.70;99.90;;;;;;4990983;28;20934;-82
2024/02/04 08:56:29;;;;;;;0.30;0.30;;;8.70;99.90;;;;;;4991235;28;20454;-81
2024/02/04 08:58:55;;;;;;;0.50;0.30;;;9.10;99.90;;;;;;4991545;28;21018;-81
2024/02/04 09:01:22;;;;;;;0.40;0.30;;;8.90;99.90;;;;;;4991063;28;20458;-81
2024/02/04 09:03:50;;;;;;;0.30;0.20;;;9.00;99.90;;;;;;4992030;28;20454;-81
2024/02/04 09:06:17;;;;;;;0.30;0.30;;;9.00;99.90;;;;;;4990903;28;20438;-81
2024/02/04 09:08:44;;;;;;;1.90;0.30;;;;;;;;;;4990059;28;20455;-81
2024/02/04 09:11:12;;;;;;;0.30;0.30;;;9.10;99.90;;;;;;4989898;28;20469;-82
2024/02/04 09:13:39;;;;;;;0.30;0.30;;;9.10;99.90;;;;;;4990025;28;20473;-82
2024/02/04 09:16:06;;;;;;;0.30;0.20;;;9.20;99.90;;;;;;4993438;28;20441;-82
2024/02/04 09:18:32;;;;;;;0.30;0.30;;;9.10;99.90;;;;;;4994414;28;20552;-82
2024/02/04 09:21:01;;;;;;;0.30;0.30;;;9.10;99.90;;;;;;4993364;28;20485;-82
2024/02/04 09:23:27;;;;;;;0.40;0.30;;;9.10;99.90;;;;;;4992527;28;20442;-82
2024/02/04 09:25:54;;;;;;;0.30;0.30;;;9.10;99.90;;;;;;4992827;28;20434;-82
2024/02/04 09:28:21;;;;;;;0.33;0.33;;;9.30;99.90;;;;;;4992232;28;20935;-81
2024/02/04 09:30:47;;;;;;;0.30;0.30;;;9.60;99.90;;;;;;4991516;28;20856;-81
2024/02/04 09:33:15;;;;;;;0.43;0.30;;;10.00;99.90;;;;;;4991864;28;20456;-82
2024/02/04 09:35:41;;;;;;;0.40;0.30;;;10.60;99.90;;;;;;4990985;28;20446;-82
2024/02/04 09:38:09;;;;;;;0.50;0.30;;;11.20;99.90;;;;;;4987946;28;21006;-82
2024/02/04 09:40:36;;;;;;;0.30;0.30;;;12.40;99.90;;;;;;4986905;28;20458;-82
2024/02/04 09:43:03;;;;;;;0.80;0.50;;;12.40;99.90;;;;;;4987398;28;20934;-82
2024/02/04 09:45:31;;;;;;;0.30;0.30;;;;;;;;;;4987786;28;20449;-81
2024/02/04 09:47:59;;;;;;;0.73;0.30;;;13.40;99.90;;;;;;4989137;28;20444;-82
2024/02/04 09:50:26;;;;;;;0.30;0.20;;;14.30;99.90;;;;;;4989941;28;20453;-82
2024/02/04 09:52:56;;;;;;;0.30;0.30;;;14.40;99.90;;;;;;4988665;28;20455;-82
2024/02/04 09:55:25;;;;;;;0.30;0.30;;;14.40;99.90;;;;;;4989176;28;20461;-82
2024/02/04 09:57:52;;;;;;;7.83;0.50;;;14.40;99.90;;;;;;4987475;28;20504;-82
2024/02/04 10:00:20;;;;;;;0.37;0.37;;;13.30;99.90;;;;;;4987807;28;20457;-83
2024/02/04 10:02:48;;;;;;;0.40;0.30;;;13.30;99.90;;;;;;4987616;28;20445;-82
2024/02/04 10:05:15;;;;;;;0.30;0.30;;;13.10;99.90;;;;;;4989288;28;20450;-82
2024/02/04 10:07:42;;;;;;;0.30;0.30;;;12.70;99.90;;;;;;4987974;28;20457;-82
2024/02/04 10:10:10;;;;;;;0.40;0.30;;;12.60;99.90;;;;;;4988404;28;20453;-82
2024/02/04 10:12:40;;;;;;;0.30;0.30;;;12.60;99.90;;;;;;4988466;28;20504;-82
2024/02/04 10:15:08;;;;;;;0.30;0.30;;;12.70;99.90;;;;;;4988195;28;20433;-82
2024/02/04 10:17:35;;;;;;;0.30;0.30;;;;;;;;;;4989126;28;20485;-82
2024/02/04 10:20:02;;;;;;;0.30;0.30;;;13.00;99.90;;;;;;4986685;28;20444;-82
2024/02/04 10:22:29;;;;;;;1.13;0.40;;;13.10;99.90;;;;;;4987409;28;20497;-82
2024/02/04 10:25:06;;;;;;;0.30;0.30;;;14.40;99.90;;;;;;4987369;28;20444;-82
2024/02/04 10:27:33;;;;;;;0.30;0.30;;;14.00;99.90;;;;;;4987431;28;20436;-82
2024/02/04 10:30:01;;;;;;;0.40;0.30;;;14.20;99.90;;;;;;4987711;28;20787;-82
2024/02/04 10:32:28;;;;;;;0.30;0.30;;;14.20;99.90;;;;;;4987447;28;20464;-82
2024/02/04 10:34:55;;;;;;;0.30;0.30;;;13.70;99.90;;;;;;4988218;28;20445;-82
2024/02/04 10:37:21;;;;;;;0.30;0.30;;;13.50;99.90;;;;;;4986881;28;20587;-82
2024/02/04 10:39:48;;;;;;;0.30;0.27;;;13.20;99.90;;;;;;4987659;28;20448;-82
2024/02/04 10:42:18;;;;;;;0.30;0.20;;;13.30;99.90;;;;;;4986995;28;20821;-82
2024/02/04 10:44:48;;;;;;;0.50;0.30;;;13.00;99.90;;;;;;4987817;28;20430;-82
2024/02/04 10:47:22;;;;;;;0.30;0.30;;;12.90;99.90;;;;;;4987236;28;20449;-82
2024/02/04 10:49:53;;;;;;;0.40;0.30;;;12.70;99.90;;;;;;4987035;28;20424;-82
2024/02/04 10:52:20;;;;;;;0.30;0.30;;;12.40;99.90;;;;;;4987017;28;20560;-82
2024/02/04 10:54:48;;;;;;;0.30;0.30;;;12.40;99.90;;;;;;4989594;28;20441;-82
2024/02/04 10:57:21;;;;;;;0.30;0.20;;;12.40;99.90;;;;;;4990717;28;20449;-82
2024/02/04 10:59:48;;;;;;;0.40;0.30;;;12.70;99.90;;;;;;4990302;28;20441;-82
2024/02/04 11:02:17;;;;;;;0.50;0.30;;;13.10;99.90;;;;;;4992565;28;20516;-82
2024/02/04 11:04:44;;;;;;;0.40;0.30;;;13.30;99.90;;;;;;4991531;28;20453;-82
2024/02/04 11:07:12;;;;;;;0.40;0.30;;;13.40;99.90;;;;;;4991744;28;20449;-83
2024/02/04 11:09:39;;;;;;;0.30;0.30;;;13.50;99.90;;;;;;4991155;28;20858;-82
2024/02/04 11:12:12;;;;;;;0.30;0.30;;;13.60;99.90;;;;;;4991172;28;20480;-82
2024/02/04 11:14:41;;;;;;;0.60;0.30;;;13.70;99.90;;;;;;4993872;28;20433;-83
2024/02/04 11:17:29;;;;;;;0.40;0.30;;;13.60;99.90;;;;;;4995488;28;20461;-83
2024/02/04 11:20:11;;;;;;;0.60;0.30;;;13.40;99.90;;;;;;4995449;28;20418;-82
2024/02/04 11:22:54;;;;;;;0.30;0.30;;;13.20;99.90;;;;;;4994019;28;21044;-83
2024/02/04 11:25:44;;;;;;;0.40;0.40;;;13.00;99.90;;;;;;4994383;28;20922;-82
2024/02/04 11:28:12;;;;;;;0.30;0.23;;;13.00;99.90;;;;;;4992550;28;20418;-83
2024/02/04 11:30:39;;;;;;;0.40;0.30;;;12.90;99.90;;;;;;4992696;28;20465;-82
2024/02/04 11:33:07;;;;;;;0.30;0.20;;;12.80;99.90;;;;;;4992879;28;20437;-82
2024/02/04 11:35:34;;;;;;;0.30;0.30;;;12.90;99.90;;;;;;4992515;28;20526;-82
2024/02/04 11:38:01;;;;;;;0.50;0.30;;;13.10;99.90;;;;;;4992207;28;20488;-82
2024/02/04 11:40:32;;;;;;;1.07;0.30;;;13.40;99.90;;;;;;4991821;28;20450;-82
2024/02/04 11:43:05;;;;;;;0.40;0.30;;;13.40;99.90;;;;;;4991443;28;20438;-82
2024/02/04 11:45:32;;;;;;;0.40;0.30;;;13.50;99.90;;;;;;4992249;28;20434;-82
2024/02/04 11:48:02;;;;;;;0.30;0.30;;;13.40;99.90;;;;;;4991813;28;20442;-81
2024/02/04 11:50:31;;;;;;;0.50;0.30;;;13.40;99.90;;;;;;4990533;28;20449;-82
2024/02/04 11:53:05;;;;;;;2.53;0.40;;;13.30;99.90;;;;;;4989826;28;20480;-82
2024/02/04 11:55:32;;;;;;;0.30;0.30;;;13.10;99.90;;;;;;4990217;28;20442;-82
2024/02/04 11:58:00;;;;;;;0.30;0.30;;;13.20;99.90;;;;;;4989989;28;20473;-82
2024/02/04 12:00:27;;;;;;;0.87;0.30;;;13.20;99.90;;;;;;4994229;28;20446;-82
2024/02/04 12:03:01;;;;;;;0.30;0.20;;;13.20;99.90;;;;;;4994175;28;20434;-82
2024/02/04 12:05:29;;;;;;;0.30;0.30;;;13.10;99.90;;;;;;4990319;28;20426;-81
2024/02/04 12:07:57;;;;;;;0.30;0.30;;;13.20;99.90;;;;;;4987993;28;20457;-82
2024/02/04 12:10:24;;;;;;;2.43;0.30;;;13.10;99.90;;;;;;4987851;28;20436;-82
2024/02/04 12:12:51;;;;;;;0.40;0.30;;;13.10;99.90;;;;;;4987686;28;20852;-82
2024/02/04 12:15:18;;;;;;;0.40;0.30;;;12.90;99.90;;;;;;4987783;28;20962;-82
2024/02/04 12:17:44;;;;;;;0.40;0.30;;;12.80;99.90;;;;;;4987473;28;20472;-82
2024/02/04 12:20:12;;;;;;;0.40;0.30;;;12.80;99.90;;;;;;4987135;28;20445;-82
2024/02/04 12:22:40;;;;;;;0.30;0.30;;;12.70;99.90;;;;;;4986132;28;20468;-81
2024/02/04 12:25:08;;;;;;;0.40;0.30;;;12.80;99.90;;;;;;4986658;28;20492;-81
2024/02/04 12:27:35;;;;;;;0.30;0.30;;;12.80;99.90;;;;;;4986872;28;20438;-81
2024/02/04 12:30:02;;;;;;;0.30;0.20;;;12.80;99.90;;;;;;4986869;28;20807;-81
2024/02/04 12:32:29;;;;;;;0.30;0.20;;;12.80;99.90;;;;;;4986555;28;20889;-82
2024/02/04 12:34:56;;;;;;;0.40;0.30;;;12.80;99.90;;;;;;4986821;28;20449;-81
2024/02/04 12:37:24;;;;;;;3.63;0.30;;;12.60;99.90;;;;;;4987749;28;20453;-81
2024/02/04 12:39:52;;;;;;;0.30;0.20;;;12.40;99.90;;;;;;5004604;28;21059;-81
2024/02/04 12:42:21;;;;;;;0.30;0.30;;;12.40;99.90;;;;;;5007687;28;20894;-81
2024/02/04 12:44:47;;;;;;;0.30;0.20;;;12.40;99.90;;;;;;5009907;28;20460;-81
2024/02/04 12:47:14;;;;;;;0.30;0.30;;;12.40;99.90;;;;;;5009127;28;20505;-81
2024/02/04 12:49:41;;;;;;;0.40;0.30;;;12.30;99.90;;;;;;5008414;28;20859;-82
2024/02/04 12:52:08;;;;;;;0.40;0.30;;;12.30;99.90;;;;;;5008217;28;20464;-81
2024/02/04 12:54:42;;;;;;;0.30;0.30;;;12.30;99.90;;;;;;5005482;28;20459;-81
2024/02/04 12:57:11;;;;;;;0.30;0.30;;;12.00;99.90;;;;;;5005656;28;20429;-81
2024/02/04 12:59:38;;;;;;;0.30;0.30;;;11.90;99.90;;;;;;5005105;28;20483;-81
2024/02/04 13:02:06;;;;;;;0.30;0.30;;;11.90;99.90;;;;;;5004397;28;20480;-81
2024/02/04 13:04:36;;;;;;;0.30;0.30;;;11.90;99.90;;;;;;5005132;28;20451;-82
2024/02/04 13:07:09;;;;;;;0.30;0.30;;;11.70;99.90;;;;;;5009139;28;20452;-82
2024/02/04 13:09:36;;;;;;;0.30;0.30;;;;;;;;;;5012056;28;20447;-82
2024/02/04 13:12:07;;;;;;;0.30;0.20;;;11.60;99.90;;;;;;5012139;28;20491;-81
2024/02/04 13:14:36;;;;;;;0.30;0.30;;;11.60;99.90;;;;;;5011785;28;20487;-82
2024/02/04 13:17:04;;;;;;;0.30;0.30;;;11.60;99.90;;;;;;5011689;28;20479;-81
2024/02/04 13:19:34;;;;;;;0.40;0.30;;;11.70;99.90;;;;;;5010993;28;20542;-82
2024/02/04 13:22:00;;;;;;;0.33;0.30;;;11.70;99.90;;;;;;5010617;28;20484;-82
2024/02/04 13:24:27;;;;;;;0.30;0.30;;;11.80;99.90;;;;;;5009494;28;20437;-82
2024/02/04 13:26:54;;;;;;;0.30;0.20;;;12.00;99.90;;;;;;5010258;28;20448;-82
2024/02/04 13:29:20;;;;;;;0.30;0.30;;;12.00;99.90;;;;;;5008995;28;20448;-81
2024/02/04 13:31:48;;;;;;;0.30;0.30;;;12.00;99.90;;;;;;5008725;28;20464;-82
2024/02/04 13:34:16;;;;;;;0.30;0.20;;;12.10;99.90;;;;;;5008261;28;20437;-82
2024/02/04 13:36:43;;;;;;;0.30;0.30;;;13.30;99.90;;;;;;5008707;28;20528;-82
2024/02/04 13:39:12;;;;;;;0.30;0.30;;;12.00;99.90;;;;;;5009292;28;20472;-82
2024/02/04 13:41:39;;;;;;;0.30;0.30;;;12.10;99.90;;;;;;5008503;28;20468;-82
2024/02/04 13:44:05;;;;;;;0.30;0.30;;;12.50;99.90;;;;;;5008295;28;20956;-82
2024/02/04 13:46:32;;;;;;;1.00;0.60;;;12.00;99.90;;;;;;5009215;28;20452;-83
2024/02/04 13:49:00;;;;;;;0.30;0.30;;;12.00;99.90;;;;;;5009090;28;20448;-82
2024/02/04 13:51:27;;;;;;;0.33;0.30;;;12.00;99.90;;;;;;5009642;28;20469;-82
2024/02/04 13:53:54;;;;;;;0.30;0.30;;;11.90;99.90;;;;;;5015827;28;20435;-82
2024/02/04 13:56:21;;;;;;;0.30;0.30;;;12.00;99.90;;;;;;5015506;28;20437;-82
2024/02/04 13:58:48;;;;;;;0.40;0.30;;;11.90;99.90;;;;;;5016017;28;20491;-83
2024/02/04 14:01:15;;;;;;;0.70;0.50;;;11.80;99.90;;;;;;5015265;28;20504;-82
2024/02/04 14:03:42;;;;;;;0.30;0.20;;;11.70;99.90;;;;;;5016032;28;20519;-83
2024/02/04 14:06:10;;;;;;;1.53;0.40;;;11.70;99.90;;;;;;5013459;28;20452;-82
2024/02/04 14:08:36;;;;;;;0.40;0.30;;;11.80;99.90;;;;;;5013835;28;20448;-82
2024/02/04 14:11:03;;;;;;;0.30;0.30;;;11.80;99.90;;;;;;5012626;28;20472;-82
2024/02/04 14:13:30;;;;;;;0.60;0.40;;;11.80;99.90;;;;;;5012526;28;20483;-81
2024/02/04 14:15:56;;;;;;;0.40;0.30;;;13.40;99.90;;;;;;5012382;28;20456;-82
2024/02/04 14:18:23;;;;;;;0.33;0.30;;;11.60;99.90;;;;;;5011607;28;20456;-81
2024/02/04 14:20:50;;;;;;;0.30;0.30;;;11.60;99.90;;;;;;5011722;28;20461;-82
2024/02/04 14:23:18;;;;;;;0.43;0.40;;;11.60;99.90;;;;;;5012617;28;20448;-81
2024/02/04 14:25:45;;;;;;;0.30;0.30;;;11.60;99.90;;;;;;5010670;28;20457;-82
2024/02/04 14:28:12;;;;;;;0.30;0.30;;;11.50;99.90;;;;;;5010751;28;20511;-81
2024/02/04 14:30:39;;;;;;;0.33;0.27;;;11.50;99.90;;;;;;5015331;28;20459;-81
2024/02/04 14:33:06;;;;;;;0.40;0.40;;;11.60;99.90;;;;;;5015343;28;20457;-82
2024/02/04 14:35:33;;;;;;;0.30;0.30;;;;;;;;;;5015915;28;20443;-81
2024/02/04 14:38:01;;;;;;;0.40;0.30;;;11.40;99.90;;;;;;5016197;28;20444;-81
2024/02/04 14:40:30;;;;;;;0.40;0.33;;;11.40;99.90;;;;;;5015406;28;20504;-82
2024/02/04 14:42:58;;;;;;;0.40;0.30;;;;;;;;;;5015544;28;20479;-81